This is the latest recevied weather packets stored in our database for station/object R1ZAAG-14. If no packets are shown the sender has not sent any weather packets the latest 10 day(s).
| Time | Temp. | Humidity | Pressure | Rain* | Wind** | Luminosity | Snow |
|---|---|---|---|---|---|---|---|
| 1778059596 | 1.67° C | 86% | 1005.8 hPa | - | - | - | - |
| 1778059588 | 1.67° C | 86% | 1005.8 hPa | - | - | - | - |
| 1778058693 | 3.33° C | 62% | 1005.4 hPa | - | - | - | - |
| 1778058688 | 3.33° C | 62% | 1005.4 hPa | - | - | - | - |
| 1778057792 | 4.44° C | 52% | 1005.1 hPa | - | - | - | - |
| 1778057787 | 4.44° C | 52% | 1005.1 hPa | - | - | - | - |
| 1778056892 | 4.44° C | 53% | 1004.9 hPa | - | - | - | - |
| 1778056886 | 4.44° C | 53% | 1004.9 hPa | - | - | - | - |
| 1778055991 | 4.44° C | 54% | 1004.7 hPa | - | - | - | - |
| 1778055986 | 4.44° C | 54% | 1004.7 hPa | - | - | - | - |
| 1778055090 | 4.44° C | 52% | 1004.5 hPa | - | - | - | - |
| 1778055086 | 4.44° C | 52% | 1004.5 hPa | - | - | - | - |
| 1778054190 | 3.33° C | 67% | 1004.3 hPa | - | - | - | - |
| 1778054185 | 3.33° C | 67% | 1004.3 hPa | - | - | - | - |
| 1778053290 | 2.78° C | 72% | 1004.3 hPa | - | - | - | - |
| 1778053285 | 2.78° C | 72% | 1004.3 hPa | - | - | - | - |
| 1778052389 | 2.22° C | 80% | 1004.2 hPa | - | - | - | - |
| 1778052384 | 2.22° C | 80% | 1004.2 hPa | - | - | - | - |
| 1778051489 | 2.78° C | 85% | 1004.1 hPa | - | - | - | - |
| 1778051483 | 2.78° C | 85% | 1004.1 hPa | - | - | - | - |
| 1778050588 | 3.33° C | 86% | 1003.9 hPa | - | - | - | - |
| 1778050582 | 3.33° C | 86% | 1003.9 hPa | - | - | - | - |
| 1778049687 | 2.78° C | 100% | 1003.8 hPa | - | - | - | - |
| 1778049682 | 2.78° C | 100% | 1003.8 hPa | - | - | - | - |
| 1778048788 | 2.78° C | 100% | 1003.7 hPa | - | - | - | - |
* Rain since midnight (hover to see other rain measurements)
** Current wind speed in m/s (hover to see current wind gust speed)